createdAt,value
2022-09-29T00:01:25.538Z,99.90
2022-09-29T00:03:52.618Z,99.90
2022-09-29T00:06:22.071Z,99.90
2022-09-29T00:08:51.976Z,99.90
2022-09-29T00:11:19.817Z,99.90
2022-09-29T00:13:48.598Z,99.90
2022-09-29T00:16:28.347Z,99.90
2022-09-29T00:18:56.170Z,99.90
2022-09-29T00:21:23.734Z,99.90
2022-09-29T00:23:51.252Z,99.90
2022-09-29T00:26:23.346Z,99.90
2022-09-29T00:28:53.756Z,99.90
2022-09-29T00:31:27.272Z,99.90
2022-09-29T00:34:00.008Z,99.90
2022-09-29T00:36:27.596Z,99.90
2022-09-29T00:38:54.601Z,99.90
2022-09-29T00:41:27.893Z,99.90
2022-09-29T00:43:57.721Z,99.90
2022-09-29T00:46:34.898Z,99.90
2022-09-29T00:49:43.659Z,99.90
2022-09-29T00:52:14.100Z,99.90
2022-09-29T00:54:54.469Z,99.90
2022-09-29T00:57:31.895Z,99.90
2022-09-29T01:00:09.781Z,99.90
2022-09-29T01:02:47.134Z,99.90
2022-09-29T01:05:19.723Z,99.90
2022-09-29T01:07:50.602Z,99.90
2022-09-29T01:10:20.466Z,99.90
2022-09-29T01:12:50.532Z,99.90
2022-09-29T01:15:23.661Z,99.90
2022-09-29T01:17:50.923Z,99.90
2022-09-29T01:20:21.890Z,99.90
2022-09-29T01:23:26.511Z,99.90
2022-09-29T01:26:06.877Z,99.90
2022-09-29T01:28:42.858Z,99.90
2022-09-29T01:31:18.442Z,99.90
2022-09-29T01:34:19.432Z,99.90
2022-09-29T01:36:55.765Z,99.90
2022-09-29T01:39:35.828Z,99.90
2022-09-29T01:42:05.170Z,99.90
2022-09-29T01:44:46.710Z,99.90
2022-09-29T01:47:22.658Z,99.90
2022-09-29T01:50:00.804Z,99.90
2022-09-29T01:52:40.034Z,99.90
2022-09-29T01:55:12.379Z,99.90
2022-09-29T01:58:00.512Z,99.90
2022-09-29T02:00:31.957Z,99.90
2022-09-29T02:03:10.346Z,99.90
2022-09-29T02:05:41.240Z,99.90
2022-09-29T02:08:19.187Z,99.90
2022-09-29T02:11:02.927Z,99.90
2022-09-29T02:13:35.433Z,99.90
2022-09-29T02:16:07.139Z,99.90
2022-09-29T02:18:42.241Z,99.90
2022-09-29T02:21:09.781Z,99.90
2022-09-29T02:23:37.068Z,99.90
2022-09-29T02:26:04.353Z,99.90
2022-09-29T02:28:31.599Z,99.90
2022-09-29T02:31:04.134Z,99.90
2022-09-29T02:33:33.708Z,99.90
2022-09-29T02:36:24.190Z,99.90
2022-09-29T02:39:05.444Z,99.90
2022-09-29T02:42:02.455Z,99.90
2022-09-29T02:44:57.059Z,99.90
2022-09-29T02:47:27.341Z,99.90
2022-09-29T02:50:32.021Z,99.90
2022-09-29T02:53:12.400Z,99.90
2022-09-29T02:56:09.668Z,99.90
2022-09-29T02:58:48.410Z,99.90
2022-09-29T03:01:17.890Z,99.90
2022-09-29T03:03:50.229Z,99.90
2022-09-29T03:06:19.570Z,99.90
2022-09-29T03:08:47.058Z,99.90
2022-09-29T03:11:16.433Z,99.90
2022-09-29T03:13:43.444Z,99.90
2022-09-29T03:16:11.029Z,99.90
2022-09-29T03:18:38.093Z,99.90
2022-09-29T03:21:05.111Z,99.90
2022-09-29T03:23:35.207Z,99.90
2022-09-29T03:26:02.201Z,99.90
2022-09-29T03:28:29.206Z,99.90
2022-09-29T03:30:56.728Z,99.90
2022-09-29T03:33:23.793Z,99.90
2022-09-29T03:35:50.843Z,99.90
2022-09-29T03:38:18.278Z,99.90
2022-09-29T03:40:47.826Z,99.90
2022-09-29T03:43:14.948Z,99.90
2022-09-29T03:45:52.748Z,99.90
2022-09-29T03:48:21.811Z,99.90
2022-09-29T03:50:54.133Z,99.90
2022-09-29T03:53:23.418Z,99.90
2022-09-29T03:55:51.470Z,99.90
2022-09-29T03:58:19.561Z,99.90
2022-09-29T04:00:50.763Z,99.90
2022-09-29T04:03:17.997Z,99.90
2022-09-29T04:05:49.161Z,99.90
2022-09-29T04:08:16.786Z,99.90
2022-09-29T04:10:46.871Z,99.90
2022-09-29T04:13:19.169Z,99.90
2022-09-29T04:15:50.662Z,99.90
2022-09-29T04:18:18.070Z,99.90
2022-09-29T04:20:47.568Z,99.90
2022-09-29T04:23:14.576Z,99.90
2022-09-29T04:25:43.996Z,99.90
2022-09-29T04:28:11.189Z,99.90
2022-09-29T04:30:38.334Z,99.90
2022-09-29T04:33:05.875Z,99.90
2022-09-29T04:35:36.791Z,99.90
2022-09-29T04:38:04.661Z,99.90
2022-09-29T04:40:32.239Z,99.90
2022-09-29T04:42:59.451Z,99.90
2022-09-29T04:45:26.650Z,99.90
2022-09-29T04:47:54.017Z,99.90
2022-09-29T04:50:23.294Z,99.90
2022-09-29T04:52:50.411Z,99.90
2022-09-29T04:55:18.055Z,99.90
2022-09-29T04:57:45.139Z,99.90
2022-09-29T05:00:12.737Z,99.90
2022-09-29T05:02:40.414Z,99.90
2022-09-29T05:05:08.817Z,99.90
2022-09-29T05:07:37.079Z,99.90
2022-09-29T05:10:05.025Z,99.90
2022-09-29T05:12:33.491Z,99.90
2022-09-29T05:15:00.618Z,99.90
2022-09-29T05:17:28.084Z,99.90
2022-09-29T05:19:57.316Z,99.90
2022-09-29T05:22:26.886Z,99.90
2022-09-29T05:24:54.326Z,99.90
2022-09-29T05:27:21.770Z,99.90
2022-09-29T05:29:48.862Z,99.90
2022-09-29T05:32:16.826Z,99.90
2022-09-29T05:34:43.897Z,99.90
2022-09-29T05:37:11.454Z,99.90
2022-09-29T05:39:41.463Z,99.90
2022-09-29T05:42:11.833Z,99.90
2022-09-29T05:44:38.958Z,99.90
2022-09-29T05:47:06.358Z,99.90
2022-09-29T05:49:33.532Z,99.90
2022-09-29T05:52:03.026Z,99.90
2022-09-29T05:54:30.426Z,99.90
2022-09-29T05:57:00.056Z,99.90
2022-09-29T05:59:27.142Z,99.90
2022-09-29T06:01:54.754Z,99.90
2022-09-29T06:04:24.034Z,99.90
2022-09-29T06:06:51.382Z,97.50
2022-09-29T06:09:18.806Z,95.50
2022-09-29T06:11:45.889Z,94.10
2022-09-29T06:14:12.952Z,93.20
2022-09-29T06:16:40.682Z,92.20
2022-09-29T06:19:07.872Z,91.50
2022-09-29T06:21:34.973Z,91.30
2022-09-29T06:24:02.660Z,89.40
2022-09-29T06:26:29.908Z,88.50
2022-09-29T06:28:57.081Z,84.50
2022-09-29T06:31:27.163Z,80.20
2022-09-29T06:33:57.884Z,76.00
2022-09-29T06:36:30.412Z,72.70
2022-09-29T06:38:57.718Z,72.20
2022-09-29T06:41:24.876Z,71.30
2022-09-29T06:43:51.899Z,69.30
2022-09-29T06:46:19.980Z,68.30
2022-09-29T06:48:49.823Z,68.80
2022-09-29T06:51:21.900Z,67.30
2022-09-29T06:53:59.602Z,66.90
2022-09-29T06:56:30.510Z,64.80
2022-09-29T06:58:57.998Z,64.90
2022-09-29T07:01:27.307Z,65.00
2022-09-29T07:03:54.437Z,65.60
2022-09-29T07:06:22.096Z,65.50
2022-09-29T07:08:54.681Z,65.90
2022-09-29T07:11:22.389Z,65.30
2022-09-29T07:13:54.169Z,64.70
2022-09-29T07:16:22.992Z,62.90
2022-09-29T07:18:50.695Z,62.10
2022-09-29T07:21:18.343Z,60.80
2022-09-29T07:23:47.334Z,59.30
2022-09-29T07:26:18.012Z,58.00
2022-09-29T07:28:47.107Z,57.10
2022-09-29T07:31:18.014Z,55.50
2022-09-29T07:33:48.897Z,54.80
2022-09-29T07:36:20.134Z,53.00
2022-09-29T07:38:49.594Z,51.30
2022-09-29T07:41:21.105Z,50.10
2022-09-29T07:43:48.805Z,49.20
2022-09-29T07:46:15.878Z,48.70
2022-09-29T07:48:45.656Z,48.10
2022-09-29T07:51:19.435Z,47.80
2022-09-29T07:53:49.100Z,47.40
2022-09-29T07:56:21.927Z,46.50
2022-09-29T07:58:50.576Z,45.30
2022-09-29T08:01:21.233Z,44.60
2022-09-29T08:03:54.092Z,44.10
2022-09-29T08:06:25.475Z,44.10
2022-09-29T08:09:02.060Z,43.80
2022-09-29T08:11:36.830Z,43.20
2022-09-29T08:14:04.527Z,42.80
2022-09-29T08:16:32.191Z,42.40
2022-09-29T08:18:59.854Z,42.90
2022-09-29T08:21:30.558Z,41.40
2022-09-29T08:23:58.033Z,41.20
2022-09-29T08:26:39.700Z,41.10
2022-09-29T08:29:16.305Z,43.00
2022-09-29T08:31:45.051Z,46.40
2022-09-29T08:34:17.929Z,48.40
2022-09-29T08:36:50.913Z,50.20
2022-09-29T08:39:18.478Z,52.60
2022-09-29T08:41:59.328Z,55.20
2022-09-29T08:44:39.341Z,55.50
2022-09-29T08:47:18.971Z,54.80
2022-09-29T08:49:53.233Z,53.00
2022-09-29T08:52:30.527Z,53.30
2022-09-29T08:55:21.617Z,55.00
2022-09-29T08:57:55.579Z,57.00
2022-09-29T09:00:33.527Z,58.10
2022-09-29T09:03:06.855Z,59.20
2022-09-29T09:06:11.936Z,60.80
2022-09-29T09:09:02.926Z,59.90
2022-09-29T09:11:30.370Z,56.40
2022-09-29T09:14:09.039Z,55.20
2022-09-29T09:16:48.591Z,54.60
2022-09-29T09:19:42.337Z,53.00
2022-09-29T09:22:25.686Z,53.20
2022-09-29T09:24:58.371Z,52.30
2022-09-29T09:27:37.988Z,52.10
2022-09-29T09:30:12.758Z,50.30
2022-09-29T09:32:56.513Z,51.30
2022-09-29T09:35:38.231Z,50.60
2022-09-29T09:38:20.799Z,51.40
2022-09-29T09:40:53.772Z,50.00
2022-09-29T09:43:32.217Z,49.10
2022-09-29T09:46:23.370Z,46.40
2022-09-29T09:49:48.887Z,44.80
2022-09-29T09:52:24.804Z,44.20
2022-09-29T09:54:56.392Z,43.30
2022-09-29T09:57:29.276Z,42.30
2022-09-29T09:59:59.797Z,42.90
2022-09-29T10:02:30.882Z,41.90
2022-09-29T10:05:00.745Z,41.20
2022-09-29T10:07:33.048Z,42.50
2022-09-29T10:10:05.533Z,43.80
2022-09-29T10:12:32.760Z,46.20
2022-09-29T10:15:12.645Z,48.20
2022-09-29T10:17:44.836Z,50.30
2022-09-29T10:20:12.224Z,52.70
2022-09-29T10:22:39.290Z,55.00
2022-09-29T10:25:08.520Z,57.10
2022-09-29T10:27:41.683Z,59.00
2022-09-29T10:30:21.532Z,60.90
2022-09-29T10:32:49.404Z,63.50
2022-09-29T10:35:23.532Z,63.70
2022-09-29T10:38:16.478Z,62.40
2022-09-29T10:41:05.103Z,58.20
2022-09-29T10:43:43.497Z,54.40
2022-09-29T10:46:35.778Z,51.90
2022-09-29T10:49:24.034Z,48.60
2022-09-29T10:52:07.234Z,46.60
2022-09-29T10:54:52.116Z,45.50
2022-09-29T10:57:27.389Z,44.40
2022-09-29T10:59:56.159Z,44.10
2022-09-29T11:02:32.238Z,44.00
2022-09-29T11:05:03.104Z,44.00
2022-09-29T11:07:31.727Z,44.30
2022-09-29T11:09:59.126Z,46.30
2022-09-29T11:12:32.015Z,48.50
2022-09-29T11:15:05.554Z,50.60
2022-09-29T11:17:38.569Z,53.60
2022-09-29T11:20:12.135Z,57.10
2022-09-29T11:23:01.173Z,59.30
2022-09-29T11:25:31.938Z,62.10
2022-09-29T11:28:05.153Z,63.60
2022-09-29T11:31:08.859Z,63.60
2022-09-29T11:33:39.467Z,64.70
2022-09-29T11:36:06.779Z,65.40
2022-09-29T11:38:41.248Z,65.60
2022-09-29T11:41:19.303Z,65.90
2022-09-29T11:43:50.579Z,66.40
2022-09-29T11:46:29.389Z,66.40
2022-09-29T11:49:04.974Z,66.20
2022-09-29T11:51:53.551Z,65.50
2022-09-29T11:54:33.948Z,66.50
2022-09-29T11:57:19.442Z,66.70
2022-09-29T12:00:10.863Z,66.40
2022-09-29T12:02:56.645Z,66.20
2022-09-29T12:06:00.430Z,66.90
2022-09-29T12:08:48.599Z,67.80
2022-09-29T12:11:47.272Z,67.20
2022-09-29T12:14:21.233Z,67.00
2022-09-29T12:16:59.161Z,67.20
2022-09-29T12:19:30.394Z,67.40
2022-09-29T12:22:02.205Z,67.70
2022-09-29T12:24:51.845Z,67.90
2022-09-29T12:27:31.014Z,68.40
2022-09-29T12:30:04.796Z,68.80
2022-09-29T12:32:41.418Z,68.50
2022-09-29T12:35:15.366Z,68.20
2022-09-29T12:37:52.220Z,68.60
2022-09-29T12:40:38.739Z,67.80
2022-09-29T12:43:28.958Z,66.40
2022-09-29T12:46:23.492Z,67.20
2022-09-29T12:49:09.397Z,68.00
2022-09-29T12:51:53.070Z,67.40
2022-09-29T12:54:47.965Z,68.20
2022-09-29T12:57:26.333Z,69.60
2022-09-29T13:00:12.125Z,68.60
2022-09-29T13:02:42.445Z,68.50
2022-09-29T13:05:18.113Z,68.50
2022-09-29T13:08:29.839Z,69.00
2022-09-29T13:11:22.593Z,69.40
2022-09-29T13:14:10.792Z,69.80
2022-09-29T13:16:46.852Z,69.90
2022-09-29T13:19:55.663Z,69.60
2022-09-29T13:22:48.058Z,69.60
2022-09-29T13:25:29.104Z,69.40
2022-09-29T13:27:57.889Z,69.30
2022-09-29T13:30:28.575Z,69.60
2022-09-29T13:33:16.061Z,70.00
2022-09-29T13:35:49.341Z,70.80
2022-09-29T13:38:38.728Z,70.40
2022-09-29T13:41:10.739Z,70.50
2022-09-29T13:43:50.708Z,71.10
2022-09-29T13:46:27.231Z,68.00
2022-09-29T13:49:08.786Z,67.40
2022-09-29T13:51:48.876Z,67.20
2022-09-29T13:54:31.294Z,67.40
2022-09-29T13:57:13.786Z,67.80
2022-09-29T13:59:47.541Z,67.90
2022-09-29T14:02:34.326Z,69.30
2022-09-29T14:05:06.406Z,71.10
2022-09-29T14:07:39.456Z,73.50
2022-09-29T14:10:18.847Z,74.50
2022-09-29T14:12:53.800Z,75.50
2022-09-29T14:15:21.804Z,76.40
2022-09-29T14:18:03.685Z,77.10
2022-09-29T14:20:32.933Z,77.40
2022-09-29T14:23:08.382Z,78.10
2022-09-29T14:25:41.780Z,78.90
2022-09-29T14:28:23.164Z,79.30
2022-09-29T14:30:55.379Z,79.80
2022-09-29T14:33:30.005Z,80.70
2022-09-29T14:35:59.800Z,80.40
2022-09-29T14:38:34.726Z,80.40
2022-09-29T14:41:24.374Z,81.00
2022-09-29T14:44:17.852Z,80.80
2022-09-29T14:46:47.652Z,80.80
2022-09-29T14:49:40.051Z,80.20
2022-09-29T14:52:16.461Z,79.70
2022-09-29T14:55:02.358Z,78.50
2022-09-29T14:57:53.056Z,78.50
2022-09-29T15:00:24.655Z,79.30
2022-09-29T15:02:59.643Z,79.80
2022-09-29T15:05:34.847Z,79.90
2022-09-29T15:08:21.383Z,80.70
2022-09-29T15:10:48.775Z,80.70
2022-09-29T15:13:27.669Z,80.50
2022-09-29T15:16:03.544Z,79.60
2022-09-29T15:18:46.090Z,79.80
2022-09-29T15:21:27.954Z,80.60
2022-09-29T15:23:55.011Z,80.80
2022-09-29T15:26:22.627Z,81.50
2022-09-29T15:28:52.308Z,81.30
2022-09-29T15:31:28.397Z,81.80
2022-09-29T15:33:56.049Z,81.30
2022-09-29T15:36:24.808Z,82.40
2022-09-29T15:38:54.823Z,83.10
2022-09-29T15:41:26.311Z,83.20
2022-09-29T15:43:58.081Z,83.50
2022-09-29T15:46:38.697Z,83.10
2022-09-29T15:49:19.019Z,83.50
2022-09-29T15:52:01.072Z,83.40
2022-09-29T15:57:27.120Z,83.90
2022-09-29T15:59:55.842Z,84.30
2022-09-29T16:02:35.326Z,85.80
2022-09-29T16:05:09.851Z,85.40
2022-09-29T16:07:48.710Z,85.70
2022-09-29T16:10:19.290Z,85.50
2022-09-29T16:12:54.095Z,85.70
2022-09-29T16:15:30.235Z,86.40
2022-09-29T16:18:02.109Z,86.80
2022-09-29T16:20:35.963Z,87.30
2022-09-29T16:23:19.568Z,88.00
2022-09-29T16:25:46.691Z,88.80
2022-09-29T16:28:27.537Z,90.00
2022-09-29T16:31:05.429Z,90.90
2022-09-29T16:33:34.820Z,91.40
2022-09-29T16:36:13.854Z,92.00
2022-09-29T16:38:48.445Z,92.40
2022-09-29T16:41:35.786Z,93.00
2022-09-29T16:44:16.564Z,93.50
2022-09-29T16:46:46.753Z,94.50
2022-09-29T16:49:21.746Z,95.80
2022-09-29T16:51:50.246Z,97.30
2022-09-29T16:54:23.812Z,98.70
2022-09-29T16:57:20.547Z,99.90
2022-09-29T16:59:59.266Z,99.90
2022-09-29T17:02:31.643Z,99.90
2022-09-29T17:04:59.210Z,99.90
2022-09-29T17:07:26.986Z,99.90
2022-09-29T17:09:57.057Z,99.90
2022-09-29T17:12:26.947Z,99.90
2022-09-29T17:14:54.497Z,99.90
2022-09-29T17:17:25.052Z,99.90
2022-09-29T17:19:54.800Z,99.90
2022-09-29T17:22:31.726Z,99.90
2022-09-29T17:25:01.681Z,99.90
2022-09-29T17:27:34.696Z,99.90
2022-09-29T17:30:02.061Z,99.90
2022-09-29T17:32:29.151Z,99.90
2022-09-29T17:34:58.746Z,99.90
2022-09-29T17:37:26.109Z,99.90
2022-09-29T17:39:53.548Z,99.90
2022-09-29T17:42:20.807Z,99.90
2022-09-29T17:44:50.785Z,99.90
2022-09-29T17:47:27.661Z,99.90
2022-09-29T17:49:56.857Z,99.90
2022-09-29T17:52:23.905Z,99.90
2022-09-29T17:54:53.555Z,99.90
2022-09-29T17:57:27.880Z,99.90
2022-09-29T17:59:55.017Z,99.90
2022-09-29T18:02:27.116Z,99.90
2022-09-29T18:04:55.723Z,99.90
2022-09-29T18:07:22.898Z,99.90
2022-09-29T18:09:52.830Z,99.90
2022-09-29T18:12:19.964Z,99.90
2022-09-29T18:14:47.176Z,99.90
2022-09-29T18:17:17.058Z,99.90
2022-09-29T18:19:44.259Z,99.90
2022-09-29T18:22:13.933Z,99.90
2022-09-29T18:24:43.919Z,99.90
2022-09-29T18:27:10.947Z,99.90
2022-09-29T18:29:40.447Z,99.90
2022-09-29T18:32:15.455Z,99.90
2022-09-29T18:34:42.675Z,99.90
2022-09-29T18:37:12.343Z,99.90
2022-09-29T18:39:39.343Z,99.90
2022-09-29T18:42:06.395Z,99.90
2022-09-29T18:44:34.157Z,99.90
2022-09-29T18:47:01.357Z,99.90
2022-09-29T18:49:30.985Z,99.90
2022-09-29T18:51:59.343Z,99.90
2022-09-29T18:54:28.851Z,99.90
2022-09-29T18:56:55.879Z,99.90
2022-09-29T18:59:23.363Z,99.90
2022-09-29T19:01:53.023Z,99.90
2022-09-29T19:04:22.494Z,99.90
2022-09-29T19:06:50.177Z,99.90
2022-09-29T19:09:17.278Z,99.90
2022-09-29T19:11:44.663Z,99.90
2022-09-29T19:14:12.628Z,99.90
2022-09-29T19:16:39.831Z,99.90
2022-09-29T19:19:06.978Z,99.90
2022-09-29T19:21:34.627Z,99.90
2022-09-29T19:24:01.850Z,99.90
2022-09-29T19:26:31.204Z,99.90
2022-09-29T19:28:58.811Z,99.90
2022-09-29T19:31:25.945Z,99.90
2022-09-29T19:33:53.121Z,99.90
2022-09-29T19:36:21.874Z,99.90
2022-09-29T19:38:51.686Z,99.90
2022-09-29T19:41:25.026Z,99.90
2022-09-29T19:43:52.558Z,99.90
2022-09-29T19:46:22.309Z,99.90
2022-09-29T19:48:51.574Z,99.90
2022-09-29T19:51:20.630Z,99.90
2022-09-29T19:53:49.792Z,99.90
2022-09-29T19:56:19.291Z,99.90
2022-09-29T19:58:46.865Z,99.90
2022-09-29T20:01:16.433Z,99.90
2022-09-29T20:03:43.494Z,99.90
2022-09-29T20:06:13.187Z,99.90
2022-09-29T20:08:40.284Z,99.90
2022-09-29T20:11:09.756Z,99.90
2022-09-29T20:13:37.928Z,99.90
2022-09-29T20:16:05.912Z,99.90
2022-09-29T20:18:36.738Z,99.90
2022-09-29T20:21:09.398Z,99.90
2022-09-29T20:23:36.811Z,99.90
2022-09-29T20:26:04.167Z,99.90
2022-09-29T20:28:31.749Z,99.90
2022-09-29T20:31:00.474Z,99.90
2022-09-29T20:33:31.539Z,99.90
2022-09-29T20:36:00.714Z,99.90
2022-09-29T20:38:27.773Z,99.90
2022-09-29T20:40:59.365Z,99.90
2022-09-29T20:43:27.123Z,99.90
2022-09-29T20:45:58.672Z,99.90
2022-09-29T20:48:25.718Z,99.90
2022-09-29T20:50:53.281Z,99.90
2022-09-29T20:53:22.576Z,99.90
2022-09-29T20:55:49.567Z,99.90
2022-09-29T20:58:17.474Z,99.90
2022-09-29T21:00:46.684Z,99.90
2022-09-29T21:03:13.749Z,99.90
2022-09-29T21:05:41.200Z,99.90
2022-09-29T21:08:08.193Z,99.90
2022-09-29T21:10:35.331Z,99.90
2022-09-29T21:13:03.037Z,99.90
2022-09-29T21:15:30.104Z,99.90
2022-09-29T21:17:57.219Z,99.90
2022-09-29T21:20:24.613Z,99.90
2022-09-29T21:22:51.655Z,99.90
2022-09-29T21:25:18.764Z,99.90
2022-09-29T21:27:46.323Z,99.90
2022-09-29T21:30:13.416Z,99.90
2022-09-29T21:32:40.813Z,99.90
2022-09-29T21:35:08.596Z,99.90
2022-09-29T21:37:35.678Z,99.90
2022-09-29T21:40:02.787Z,99.90
2022-09-29T21:42:32.127Z,99.90
2022-09-29T21:44:59.134Z,99.90
2022-09-29T21:47:26.133Z,99.90
2022-09-29T21:49:55.663Z,99.90
2022-09-29T21:52:22.718Z,99.90
2022-09-29T21:54:49.792Z,99.90
2022-09-29T21:57:17.396Z,99.90
2022-09-29T21:59:44.399Z,99.90
2022-09-29T22:02:11.733Z,99.90
2022-09-29T22:04:39.285Z,99.90
2022-09-29T22:07:08.796Z,99.90
2022-09-29T22:09:38.546Z,99.90
2022-09-29T22:12:08.219Z,99.90
2022-09-29T22:14:37.482Z,99.90
2022-09-29T22:17:07.219Z,99.90
2022-09-29T22:19:39.371Z,99.90
2022-09-29T22:22:06.391Z,99.90
2022-09-29T22:24:35.680Z,99.90
2022-09-29T22:27:03.119Z,99.90
2022-09-29T22:29:32.357Z,99.90
2022-09-29T22:32:02.160Z,99.90
2022-09-29T22:34:29.907Z,99.90
2022-09-29T22:36:56.979Z,99.90
2022-09-29T22:39:26.226Z,99.90
2022-09-29T22:41:56.123Z,99.90
2022-09-29T22:44:23.105Z,99.90
2022-09-29T22:46:50.154Z,99.90
2022-09-29T22:49:17.987Z,99.90
2022-09-29T22:51:45.065Z,99.90
2022-09-29T22:54:12.067Z,99.90
2022-09-29T22:56:40.269Z,99.90
2022-09-29T22:59:07.287Z,99.90
2022-09-29T23:01:34.392Z,99.90
2022-09-29T23:04:02.565Z,99.90
2022-09-29T23:06:29.608Z,99.90
2022-09-29T23:09:00.926Z,99.90
2022-09-29T23:11:29.056Z,99.90
2022-09-29T23:13:58.915Z,99.90
2022-09-29T23:16:26.295Z,99.90
2022-09-29T23:18:55.417Z,99.90
2022-09-29T23:21:23.573Z,99.90
2022-09-29T23:24:03.481Z,99.90
2022-09-29T23:26:30.972Z,99.90
2022-09-29T23:28:59.495Z,99.90
2022-09-29T23:31:27.255Z,99.90
2022-09-29T23:33:57.158Z,99.90
2022-09-29T23:36:25.549Z,99.90
2022-09-29T23:38:52.916Z,99.90
2022-09-29T23:41:20.414Z,99.90
2022-09-29T23:43:47.419Z,99.90
2022-09-29T23:46:14.651Z,99.90
2022-09-29T23:48:42.005Z,99.90
2022-09-29T23:51:09.060Z,99.90
2022-09-29T23:53:36.218Z,99.90
2022-09-29T23:56:03.674Z,99.90
2022-09-29T23:58:33.161Z,99.90
